Time;durP1;ratioP1;P1;durP2;ratioP2;P2;SDS_P1;SDS_P2;PMS_P1;PMS_P2;Temp;Humidity;BMP_temperature;BMP_pressure;BME280_temperature;BME280_humidity;BME280_pressure;Samples;Min_cycle;Max_cycle;Signal;HPM_P1;HPM_P2
2022/05/25 00:00:18;;;;;;;1.65;1.17;;;19.50;58.10;;;;;;5109022;28;20164;-72
2022/05/25 00:02:45;;;;;;;1.08;0.98;;;19.50;58.20;;;;;;5102503;28;20176;-72
2022/05/25 00:05:12;;;;;;;1.38;1.00;;;19.40;58.10;;;;;;5089391;28;20050;-72
2022/05/25 00:07:40;;;;;;;1.35;1.17;;;19.40;58.10;;;;;;5088691;28;20086;-72
2022/05/25 00:10:07;;;;;;;2.20;1.15;;;20.20;62.00;;;;;;5089592;28;20048;-73
2022/05/25 00:12:34;;;;;;;1.20;0.90;;;19.40;58.10;;;;;;5089612;28;20040;-72
2022/05/25 00:15:02;;;;;;;1.15;1.00;;;19.40;58.10;;;;;;5087555;28;20051;-72
2022/05/25 00:17:28;;;;;;;1.10;1.00;;;20.50;62.40;;;;;;5088134;28;20063;-72
2022/05/25 00:20:00;;;;;;;1.65;1.30;;;19.20;61.80;;;;;;5089427;28;20052;-73
2022/05/25 00:22:27;;;;;;;1.52;1.20;;;19.40;58.10;;;;;;5088528;28;20052;-72
2022/05/25 00:24:56;;;;;;;1.50;1.20;;;19.40;58.10;;;;;;5087745;28;20131;-72
2022/05/25 00:27:23;;;;;;;1.30;0.95;;;20.00;61.80;;;;;;5087443;28;20143;-72
2022/05/25 00:29:49;;;;;;;2.15;1.20;;;19.40;58.10;;;;;;5089181;28;20050;-72
2022/05/25 00:32:18;;;;;;;1.58;1.20;;;19.40;58.10;;;;;;5097311;28;20055;-72
2022/05/25 00:34:45;;;;;;;1.00;0.90;;;19.40;58.00;;;;;;5108253;28;20075;-72
2022/05/25 00:37:12;;;;;;;1.23;1.00;;;18.30;60.90;;;;;;5093230;28;20055;-73
2022/05/25 00:39:40;;;;;;;1.17;1.08;;;19.20;61.90;;;;;;5089405;28;20477;-72
2022/05/25 00:42:07;;;;;;;1.70;1.15;;;19.40;62.70;;;;;;5071303;28;20052;-73
2022/05/25 00:44:34;;;;;;;1.60;1.15;;;18.50;62.20;;;;;;5088754;28;20052;-72
2022/05/25 00:47:01;;;;;;;1.55;1.27;;;19.20;61.90;;;;;;5087790;28;20056;-72
2022/05/25 00:49:30;;;;;;;1.30;1.13;;;18.20;61.10;;;;;;5087749;28;20052;-73
2022/05/25 00:51:58;;;;;;;3.47;1.13;;;19.30;58.00;;;;;;5089217;28;20062;-73
2022/05/25 00:54:27;;;;;;;1.30;1.20;;;19.20;62.60;;;;;;5088540;28;20052;-72
2022/05/25 00:56:54;;;;;;;1.33;1.00;;;19.20;61.50;;;;;;5087644;28;20051;-72
2022/05/25 00:59:22;;;;;;;1.63;1.10;;;19.30;62.30;;;;;;5104895;28;20061;-72
2022/05/25 01:01:49;;;;;;;1.15;1.05;;;19.50;62.60;;;;;;5102144;28;20058;-72
2022/05/25 01:04:16;;;;;;;1.10;1.00;;;19.20;57.90;;;;;;5086805;28;20048;-72
2022/05/25 01:07:20;;;;;;;1.73;1.20;;;19.20;62.20;;;;;;5104589;28;20050;-73
2022/05/25 01:09:51;;;;;;;1.92;1.20;;;18.90;61.40;;;;;;5009391;28;20088;-72
2022/05/25 01:12:41;;;;;;;1.52;1.10;;;19.40;62.20;;;;;;5092128;28;20061;-72
2022/05/25 01:15:14;;;;;;;2.15;1.25;;;19.20;62.80;;;;;;5107799;28;20126;-72
2022/05/25 01:17:52;;;;;;;1.27;1.08;;;19.10;62.10;;;;;;5109009;28;20050;-73
2022/05/25 01:20:24;;;;;;;1.60;1.10;;;19.20;58.00;;;;;;5107716;28;20058;-72
2022/05/25 01:23:09;;;;;;;1.38;0.90;;;19.20;58.00;;;;;;5105468;28;20057;-72
2022/05/25 01:25:52;;;;;;;1.75;1.20;;;19.20;61.90;;;;;;5108125;28;20054;-72
2022/05/25 01:28:23;;;;;;;1.45;1.10;;;19.20;58.00;;;;;;5111746;28;20043;-72
2022/05/25 01:30:52;;;;;;;1.83;1.20;;;19.20;58.00;;;;;;5112111;28;20059;-72
2022/05/25 01:33:20;;;;;;;2.17;1.40;;;19.20;60.90;;;;;;5111305;28;20051;-72
2022/05/25 01:35:51;;;;;;;1.55;1.30;;;20.10;62.50;;;;;;5111977;28;20048;-73
2022/05/25 01:38:20;;;;;;;2.85;1.20;;;19.70;61.50;;;;;;5109867;28;20058;-72
2022/05/25 01:40:50;;;;;;;1.40;1.10;;;19.00;61.70;;;;;;5090656;28;20062;-72
2022/05/25 01:43:18;;;;;;;1.67;1.10;;;19.20;60.50;;;;;;5090517;28;20139;-72
2022/05/25 01:45:47;;;;;;;1.23;1.10;;;18.50;61.10;;;;;;5091359;28;20055;-72
2022/05/25 01:48:16;;;;;;;1.42;1.20;;;19.10;62.80;;;;;;5091687;28;20044;-71
2022/05/25 01:50:45;;;;;;;1.52;1.23;;;19.10;57.80;;;;;;5091623;28;20058;-72
2022/05/25 01:53:13;;;;;;;1.50;1.30;;;19.10;57.80;;;;;;5091234;28;20657;-71
2022/05/25 01:55:41;;;;;;;2.28;1.20;;;19.10;61.40;;;;;;5099350;28;20035;-72
2022/05/25 01:58:09;;;;;;;2.42;1.20;;;18.60;61.50;;;;;;5111778;28;20126;-71
2022/05/25 02:00:37;;;;;;;1.58;1.17;;;19.30;61.60;;;;;;5111487;28;20412;-73
2022/05/25 02:05:56;;;;;;;1.20;1.10;;;18.90;61.80;;;;;;5060277;28;20429;-74
2022/05/25 02:08:28;;;;;;;1.25;1.15;;;19.20;61.90;;;;;;5091085;28;20090;-72
2022/05/25 02:11:01;;;;;;;1.83;1.30;;;19.00;57.80;;;;;;5091292;28;20051;-72
2022/05/25 02:13:34;;;;;;;1.95;1.17;;;19.00;60.90;;;;;;5091846;28;20524;-71
2022/05/25 02:16:06;;;;;;;2.55;1.40;;;20.00;62.60;;;;;;5090747;28;20134;-72
2022/05/25 02:18:36;;;;;;;1.10;1.00;;;18.90;61.40;;;;;;5090770;28;20052;-72
2022/05/25 02:21:06;;;;;;;1.40;1.17;;;19.10;61.40;;;;;;5090676;28;20135;-71
2022/05/25 02:23:48;;;;;;;1.70;1.25;;;19.00;60.70;;;;;;5090299;28;20066;-73
2022/05/25 02:26:17;;;;;;;1.73;1.17;;;19.00;57.60;;;;;;5090423;28;20047;-73
2022/05/25 02:28:45;;;;;;;2.67;1.15;;;19.00;62.60;;;;;;5092963;28;20063;-71
2022/05/25 02:31:13;;;;;;;1.50;1.25;;;18.10;60.90;;;;;;5094351;28;20061;-72
2022/05/25 02:33:41;;;;;;;1.63;1.27;;;19.00;62.70;;;;;;5110439;28;20058;-72
2022/05/25 02:36:10;;;;;;;1.58;1.25;;;18.90;57.70;;;;;;5111268;28;20043;-73
2022/05/25 02:38:37;;;;;;;5.25;1.40;;;18.90;57.70;;;;;;5110168;28;20135;-72
2022/05/25 02:41:05;;;;;;;1.48;1.20;;;20.10;63.30;;;;;;5110517;28;20062;-72
2022/05/25 02:43:32;;;;;;;1.88;1.25;;;18.90;60.80;;;;;;5110741;28;20051;-72
2022/05/25 02:45:58;;;;;;;1.25;1.10;;;18.90;57.60;;;;;;5103651;28;20496;-72
2022/05/25 02:48:25;;;;;;;1.58;1.33;;;20.10;62.40;;;;;;5090193;28;20055;-72
2022/05/25 02:50:52;;;;;;;1.40;1.20;;;18.50;61.30;;;;;;5089857;28;20084;-72
2022/05/25 02:53:22;;;;;;;1.45;1.20;;;18.90;60.60;;;;;;5089707;28;20056;-72
2022/05/25 02:55:49;;;;;;;1.85;1.20;;;18.80;61.70;;;;;;5089386;28;20044;-72
2022/05/25 02:58:15;;;;;;;2.33;1.20;;;18.80;61.40;;;;;;5098106;28;20066;-72
2022/05/25 03:00:43;;;;;;;2.47;1.20;;;18.80;62.30;;;;;;5111431;28;20134;-72
2022/05/25 03:03:11;;;;;;;1.70;1.20;;;18.90;61.50;;;;;;5102940;28;20062;-72
2022/05/25 03:05:38;;;;;;;1.20;1.10;;;18.90;57.60;;;;;;5109881;28;20048;-72
2022/05/25 03:08:06;;;;;;;1.45;1.10;;;18.30;61.50;;;;;;5110952;28;20642;-72
2022/05/25 03:10:34;;;;;;;1.73;1.13;;;18.90;57.60;;;;;;5109750;28;20063;-72
2022/05/25 03:13:01;;;;;;;1.45;1.27;;;18.80;61.50;;;;;;5110761;28;20050;-72
2022/05/25 03:15:28;;;;;;;1.38;1.10;;;18.70;62.10;;;;;;5111227;28;20043;-72
2022/05/25 03:17:55;;;;;;;2.35;1.20;;;18.10;61.20;;;;;;5109650;28;20486;-72
2022/05/25 03:20:22;;;;;;;1.40;1.25;;;18.80;57.50;;;;;;5106498;28;20055;-72
2022/05/25 03:22:49;;;;;;;2.20;1.40;;;18.70;62.00;;;;;;5089083;28;20058;-72
2022/05/25 03:25:16;;;;;;;1.25;1.15;;;18.80;61.20;;;;;;5089167;28;20048;-72
2022/05/25 03:27:45;;;;;;;2.25;1.20;;;19.80;61.90;;;;;;5089337;28;20417;-72
2022/05/25 03:30:13;;;;;;;2.47;1.40;;;18.80;57.50;;;;;;5088668;28;20048;-72
2022/05/25 03:32:41;;;;;;;1.98;1.30;;;18.90;62.60;;;;;;5089198;28;20067;-72
2022/05/25 03:35:08;;;;;;;1.55;1.25;;;18.10;61.50;;;;;;5088858;28;20056;-72
2022/05/25 03:37:35;;;;;;;1.42;1.25;;;19.10;62.00;;;;;;5091251;28;20048;-72
2022/05/25 03:40:02;;;;;;;1.95;1.20;;;18.80;61.40;;;;;;5090327;28;20054;-72
2022/05/25 03:42:29;;;;;;;1.60;1.35;;;18.90;61.20;;;;;;5088940;28;20079;-72
2022/05/25 03:44:57;;;;;;;1.75;1.23;;;18.50;61.50;;;;;;5090029;28;20526;-72
2022/05/25 03:47:23;;;;;;;2.28;1.15;;;18.70;57.50;;;;;;5088727;28;20056;-72
2022/05/25 03:49:50;;;;;;;1.67;1.38;;;18.70;57.50;;;;;;5089156;28;20059;-72
2022/05/25 03:52:20;;;;;;;1.50;1.30;;;18.70;61.30;;;;;;5089639;28;20060;-72
2022/05/25 03:54:47;;;;;;;1.30;1.20;;;18.70;62.00;;;;;;5088759;28;20089;-72
2022/05/25 03:57:14;;;;;;;1.25;1.10;;;18.70;57.50;;;;;;5089549;28;20058;-72
2022/05/25 03:59:40;;;;;;;2.40;1.20;;;18.70;57.50;;;;;;5097618;28;20413;-72
2022/05/25 04:02:09;;;;;;;1.50;1.20;;;19.60;62.30;;;;;;5096101;28;20062;-72
2022/05/25 04:04:35;;;;;;;2.22;1.30;;;18.70;61.50;;;;;;5108842;28;20485;-72
2022/05/25 04:07:02;;;;;;;2.05;1.27;;;18.60;61.20;;;;;;5109774;28;20048;-72
2022/05/25 04:09:29;;;;;;;1.30;1.20;;;18.70;61.60;;;;;;5104689;28;20054;-72
2022/05/25 04:11:56;;;;;;;1.52;1.35;;;18.50;61.50;;;;;;5088186;28;20131;-72
2022/05/25 04:14:23;;;;;;;1.35;1.10;;;18.60;57.50;;;;;;5088151;28;20135;-72
2022/05/25 04:16:50;;;;;;;1.90;1.40;;;18.60;57.50;;;;;;5093690;28;20405;-72
2022/05/25 04:19:18;;;;;;;2.15;1.42;;;18.60;57.40;;;;;;5108041;28;20048;-72
2022/05/25 04:21:45;;;;;;;1.42;1.25;;;17.90;61.00;;;;;;5108680;28;20058;-72
2022/05/25 04:24:12;;;;;;;1.67;1.25;;;18.70;61.00;;;;;;5107953;28;20074;-72
2022/05/25 04:26:39;;;;;;;1.40;1.30;;;18.70;57.40;;;;;;5107840;28;20035;-72
2022/05/25 04:29:06;;;;;;;1.73;1.30;;;18.60;61.20;;;;;;5108386;28;20051;-72
2022/05/25 04:31:32;;;;;;;1.52;1.35;;;18.60;57.30;;;;;;5109511;28;20043;-72
2022/05/25 04:33:59;;;;;;;1.75;1.27;;;18.60;57.30;;;;;;5108462;28;20401;-72
2022/05/25 04:36:27;;;;;;;1.77;1.50;;;18.50;60.70;;;;;;5107918;28;20048;-72
2022/05/25 04:38:54;;;;;;;1.42;1.33;;;18.50;61.90;;;;;;5108482;28;20062;-72
2022/05/25 04:41:21;;;;;;;2.67;1.50;;;19.30;61.90;;;;;;5109498;28;20409;-72
2022/05/25 04:43:48;;;;;;;1.95;1.40;;;18.60;57.40;;;;;;5106132;28;20127;-72
2022/05/25 04:46:14;;;;;;;1.80;1.40;;;18.70;61.30;;;;;;5107990;28;20130;-72
2022/05/25 04:48:41;;;;;;;1.98;1.50;;;18.50;61.20;;;;;;5109249;28;20134;-72
2022/05/25 04:51:08;;;;;;;1.38;1.27;;;18.60;57.40;;;;;;5108343;28;20055;-72
2022/05/25 04:53:36;;;;;;;1.90;1.50;;;19.70;61.20;;;;;;5090627;28;20516;-72
2022/05/25 04:58:48;;;;;;;1.83;1.30;;;19.30;61.80;;;;;;5107954;28;20044;-72
2022/05/25 05:01:17;;;;;;;2.50;1.48;;;18.60;57.40;;;;;;5092750;28;20089;-72
2022/05/25 05:03:44;;;;;;;2.22;1.40;;;19.00;62.30;;;;;;5108840;28;20401;-72
2022/05/25 05:06:11;;;;;;;1.35;1.23;;;18.60;61.10;;;;;;5107949;28;20047;-72
2022/05/25 05:08:39;;;;;;;1.50;1.40;;;18.50;57.30;;;;;;5107921;28;20588;-72
2022/05/25 05:11:06;;;;;;;1.40;1.30;;;17.80;60.60;;;;;;5108034;28;20124;-72
2022/05/25 05:13:33;;;;;;;1.95;1.45;;;17.50;60.00;;;;;;5108611;28;20130;-72
2022/05/25 05:16:03;;;;;;;1.95;1.40;;;17.20;61.60;;;;;;5107663;28;20051;-72
2022/05/25 05:18:30;;;;;;;2.13;1.75;;;18.60;57.30;;;;;;5103747;28;20055;-72
2022/05/25 05:20:57;;;;;;;2.13;1.40;;;18.60;57.30;;;;;;5087264;28;20056;-72
2022/05/25 05:23:24;;;;;;;1.80;1.48;;;18.60;60.60;;;;;;5086911;28;20056;-72
2022/05/25 05:25:52;;;;;;;2.00;1.48;;;18.60;57.20;;;;;;5091089;28;20051;-72
2022/05/25 05:28:20;;;;;;;1.40;1.30;;;18.40;61.40;;;;;;5101622;28;20398;-72
2022/05/25 05:30:48;;;;;;;1.67;1.40;;;18.60;57.30;;;;;;5097242;28;20534;-72
2022/05/25 05:33:15;;;;;;;1.88;1.30;;;18.60;62.00;;;;;;5099723;28;20074;-72
2022/05/25 05:35:42;;;;;;;1.58;1.30;;;18.70;61.70;;;;;;5087591;28;20052;-72
2022/05/25 05:38:09;;;;;;;2.33;1.40;;;18.60;57.30;;;;;;5092603;28;20040;-72
2022/05/25 05:40:36;;;;;;;1.85;1.52;;;18.60;57.20;;;;;;5096707;28;20048;-72
2022/05/25 05:43:04;;;;;;;1.65;1.30;;;18.70;57.10;;;;;;5096908;28;20382;-72
2022/05/25 05:45:34;;;;;;;2.97;1.63;;;18.40;62.00;;;;;;5098107;28;20080;-72
2022/05/25 05:48:02;;;;;;;4.57;2.10;;;18.70;61.40;;;;;;5087424;28;20054;-72
2022/05/25 05:50:29;;;;;;;2.28;1.80;;;18.90;56.80;;;;;;5089811;28;20393;-73
2022/05/25 05:52:55;;;;;;;2.25;1.80;;;18.90;61.20;;;;;;5087222;28;20059;-72
2022/05/25 05:55:22;;;;;;;2.22;1.80;;;18.80;60.80;;;;;;5088251;28;20040;-72
2022/05/25 05:57:49;;;;;;;3.22;1.60;;;18.70;60.30;;;;;;5091679;28;20059;-73
2022/05/25 06:00:17;;;;;;;1.92;1.60;;;19.30;61.10;;;;;;5089601;28;20135;-73
2022/05/25 06:02:44;;;;;;;1.92;1.58;;;18.40;60.40;;;;;;5093793;28;20078;-72
2022/05/25 06:05:11;;;;;;;1.88;1.60;;;19.80;59.30;;;;;;5086683;28;20052;-72
2022/05/25 06:07:38;;;;;;;2.30;1.42;;;19.70;55.60;;;;;;5092301;28;20592;-72
2022/05/25 06:10:06;;;;;;;3.95;1.50;;;19.90;55.40;;;;;;5100221;28;20055;-72
2022/05/25 06:12:33;;;;;;;1.88;1.50;;;20.10;60.10;;;;;;5087044;28;20413;-72
2022/05/25 06:19:25;;;;;;;1.48;1.25;;;20.30;59.70;;;;;;5096876;28;20054;-72
2022/05/25 06:20:31;;;;;;;1.38;1.20;;;20.30;54.50;;;;;;5092448;28;20044;-72
2022/05/25 06:22:58;;;;;;;2.28;1.80;;;20.40;54.30;;;;;;5100684;28;20044;-73
2022/05/25 06:25:25;;;;;;;2.88;1.40;;;20.60;54.20;;;;;;5098154;28;20493;-73
2022/05/25 06:27:52;;;;;;;1.33;1.20;;;20.90;59.20;;;;;;5100367;28;20051;-73
2022/05/25 06:30:18;;;;;;;1.77;1.35;;;20.80;54.00;;;;;;5099364;28;20044;-73
2022/05/25 06:32:46;;;;;;;2.20;1.27;;;21.20;58.60;;;;;;5102097;28;20047;-73
2022/05/25 06:35:14;;;;;;;1.40;1.10;;;21.00;53.80;;;;;;5110822;28;20139;-73
2022/05/25 06:37:40;;;;;;;1.92;1.10;;;21.10;53.60;;;;;;5110737;28;20040;-73
2022/05/25 06:40:09;;;;;;;1.23;1.13;;;21.70;58.50;;;;;;5109391;28;20488;-73
2022/05/25 06:42:37;;;;;;;1.52;1.33;;;21.30;53.20;;;;;;5102649;28;20486;-73
2022/05/25 06:45:04;;;;;;;2.08;1.30;;;21.40;53.10;;;;;;5104190;28;20505;-73
2022/05/25 06:47:32;;;;;;;2.28;1.20;;;21.50;53.00;;;;;;5097876;28;20043;-73
2022/05/25 06:50:00;;;;;;;0.90;0.90;;;21.60;52.90;;;;;;5101640;28;20126;-73
2022/05/25 06:52:27;;;;;;;1.83;1.00;;;21.70;52.80;;;;;;5095847;28;20048;-73
2022/05/25 06:54:54;;;;;;;1.90;1.10;;;21.80;52.80;;;;;;5098080;28;20054;-73
2022/05/25 06:57:21;;;;;;;0.93;0.90;;;21.30;57.30;;;;;;5111305;27;20055;-73
2022/05/25 06:59:47;;;;;;;2.50;1.10;;;22.70;57.20;;;;;;5110934;27;20058;-72
2022/05/25 07:02:14;;;;;;;1.60;1.00;;;22.60;56.70;;;;;;5099500;28;20052;-72
2022/05/25 07:04:41;;;;;;;1.00;0.90;;;22.10;57.30;;;;;;5097664;28;20052;-72
2022/05/25 07:07:09;;;;;;;2.25;1.00;;;22.20;56.90;;;;;;5100144;28;20058;-72
2022/05/25 07:09:39;;;;;;;1.60;1.10;;;22.20;52.30;;;;;;5101749;28;20043;-72
2022/05/25 07:12:06;;;;;;;1.52;1.10;;;22.30;52.20;;;;;;5094786;28;20077;-72
2022/05/25 07:14:32;;;;;;;1.80;1.00;;;22.40;52.20;;;;;;5089500;28;20143;-73
2022/05/25 07:17:00;;;;;;;1.48;1.10;;;22.40;52.10;;;;;;5090830;28;20052;-73
2022/05/25 07:19:27;;;;;;;1.70;1.20;;;22.50;52.10;;;;;;5089652;28;20055;-73
2022/05/25 07:21:53;;;;;;;2.13;0.95;;;23.20;58.10;;;;;;5104885;28;20058;-73
2022/05/25 07:24:21;;;;;;;1.60;1.02;;;22.60;52.00;;;;;;5089149;28;20062;-73
2022/05/25 07:26:48;;;;;;;1.50;1.00;;;22.60;56.40;;;;;;5089656;28;20421;-73
2022/05/25 07:29:15;;;;;;;1.00;0.90;;;22.70;52.00;;;;;;5089083;28;20058;-73
2022/05/25 07:31:46;;;;;;;1.25;0.95;;;23.80;56.70;;;;;;5089712;28;20048;-74
2022/05/25 07:34:15;;;;;;;2.35;1.05;;;22.80;51.80;;;;;;5089254;28;20044;-74
2022/05/25 07:36:41;;;;;;;24.98;6.55;;;22.90;51.80;;;;;;5090458;28;20131;-74
2022/05/25 07:39:11;;;;;;;27.98;7.10;;;22.90;51.70;;;;;;5089353;28;20666;-74
2022/05/25 07:41:41;;;;;;;15.75;5.00;;;23.10;56.20;;;;;;5089385;28;20047;-72
2022/05/25 07:44:08;;;;;;;20.35;5.88;;;23.00;51.70;;;;;;5088969;28;20047;-72
2022/05/25 07:46:35;;;;;;;12.73;3.33;;;24.30;56.10;;;;;;5090394;28;20050;-72
2022/05/25 07:49:02;;;;;;;15.20;3.95;;;23.00;54.90;;;;;;5088580;28;20136;-72
2022/05/25 07:51:28;;;;;;;14.40;4.00;;;22.00;55.70;;;;;;5088994;28;20051;-74
2022/05/25 07:53:57;;;;;;;10.10;3.13;;;23.10;51.30;;;;;;5090389;28;20059;-72
2022/05/25 07:56:24;;;;;;;12.32;3.60;;;24.00;56.10;;;;;;5089965;28;20075;-72
2022/05/25 07:58:52;;;;;;;12.00;3.38;;;23.20;55.50;;;;;;5110250;28;20048;-73
2022/05/25 08:01:19;;;;;;;6.80;2.50;;;23.40;54.70;;;;;;5108780;28;20469;-71
2022/05/25 08:06:31;;;;;;;7.88;2.55;;;23.10;52.40;;;;;;5100154;28;20130;-72
2022/05/25 08:08:57;;;;;;;12.82;3.88;;;23.20;55.10;;;;;;5109858;28;20055;-72
2022/05/25 08:11:24;;;;;;;11.63;3.10;;;23.20;50.90;;;;;;5109161;28;20420;-72
2022/05/25 08:13:53;;;;;;;7.82;2.53;;;23.20;50.90;;;;;;5109775;28;20578;-73
2022/05/25 08:16:20;;;;;;;8.57;2.30;;;23.20;50.90;;;;;;5110913;28;20051;-72
2022/05/25 08:18:47;;;;;;;7.05;2.22;;;23.20;51.00;;;;;;5109558;28;20051;-72
2022/05/25 08:21:13;;;;;;;7.75;2.50;;;23.10;54.80;;;;;;5110059;28;20557;-72
2022/05/25 08:23:40;;;;;;;7.72;2.45;;;22.90;55.10;;;;;;5109354;28;20138;-72
2022/05/25 08:26:07;;;;;;;5.85;2.40;;;22.60;54.40;;;;;;5109134;28;20055;-72
2022/05/25 08:28:34;;;;;;;6.32;2.65;;;23.20;51.60;;;;;;5109968;28;20047;-72
2022/05/25 08:31:02;;;;;;;11.38;2.67;;;23.20;51.00;;;;;;5109834;28;20155;-72
2022/05/25 08:33:29;;;;;;;6.82;2.10;;;23.90;53.30;;;;;;5108834;28;20055;-72
2022/05/25 08:35:55;;;;;;;7.57;2.30;;;24.30;56.20;;;;;;5108586;28;20142;-73
2022/05/25 08:38:23;;;;;;;4.97;1.80;;;23.10;55.00;;;;;;5110142;28;20111;-73
2022/05/25 08:40:51;;;;;;;4.38;2.22;;;23.20;51.20;;;;;;5108464;28;20071;-73
2022/05/25 08:43:19;;;;;;;8.05;2.00;;;23.30;55.00;;;;;;5107891;28;20075;-73
2022/05/25 08:45:48;;;;;;;5.65;1.92;;;23.30;51.20;;;;;;5104922;28;20788;-73
2022/05/25 08:48:17;;;;;;;6.47;1.92;;;23.20;51.20;;;;;;5087809;28;20047;-73
2022/05/25 08:50:44;;;;;;;5.55;1.83;;;23.30;55.60;;;;;;5088809;28;20050;-73
2022/05/25 08:53:12;;;;;;;5.35;1.95;;;23.20;51.40;;;;;;5086757;28;20048;-73
2022/05/25 08:55:52;;;;;;;5.40;1.92;;;23.20;51.40;;;;;;5086910;28;20052;-73
2022/05/25 08:58:19;;;;;;;5.97;1.70;;;23.10;51.50;;;;;;5102745;28;20112;-73
2022/05/25 09:00:46;;;;;;;4.68;1.65;;;23.10;51.60;;;;;;5108392;28;20141;-73
2022/05/25 09:03:20;;;;;;;3.85;1.88;;;23.10;51.70;;;;;;5089223;28;20425;-73
2022/05/25 09:05:48;;;;;;;5.82;1.90;;;23.10;51.70;;;;;;5087360;28;20083;-73
2022/05/25 09:08:21;;;;;;;3.70;1.60;;;23.30;55.40;;;;;;5087475;28;20051;-73
2022/05/25 09:10:49;;;;;;;2.88;1.50;;;23.00;52.00;;;;;;5087610;28;20554;-73
2022/05/25 09:13:19;;;;;;;6.18;1.70;;;23.00;51.90;;;;;;5088607;28;20052;-73
2022/05/25 09:18:33;;;;;;;5.00;1.42;;;23.00;51.90;;;;;;5098561;28;20116;-73
2022/05/25 09:21:00;;;;;;;4.07;1.50;;;23.00;52.00;;;;;;5107971;28;20447;-73
2022/05/25 09:23:28;;;;;;;3.13;1.10;;;22.90;53.60;;;;;;5107801;28;20048;-73
2022/05/25 09:25:55;;;;;;;2.47;1.15;;;22.90;52.00;;;;;;5107918;28;20431;-73
2022/05/25 09:28:23;;;;;;;2.10;1.33;;;22.90;52.00;;;;;;5107468;28;20122;-73
2022/05/25 09:30:51;;;;;;;3.50;1.75;;;22.80;52.00;;;;;;5107071;28;20134;-73
2022/05/25 09:33:21;;;;;;;2.58;1.20;;;22.80;52.00;;;;;;5107164;28;20051;-73
2022/05/25 09:35:51;;;;;;;3.53;1.40;;;22.80;52.10;;;;;;5090218;28;20062;-73
2022/05/25 09:38:30;;;;;;;16.67;2.08;;;22.70;55.70;;;;;;5090942;28;20040;-73
2022/05/25 09:40:56;;;;;;;3.35;1.20;;;22.80;52.20;;;;;;5096766;28;20237;-72
2022/05/25 09:43:24;;;;;;;4.50;1.35;;;22.60;55.40;;;;;;5096060;28;20055;-73
2022/05/25 09:45:53;;;;;;;3.65;1.20;;;22.70;52.30;;;;;;5100742;28;20498;-73
2022/05/25 09:48:27;;;;;;;2.97;1.20;;;22.60;56.00;;;;;;5099492;28;20040;-73
2022/05/25 09:50:56;;;;;;;1.98;1.08;;;22.60;52.40;;;;;;5100187;28;20055;-72
2022/05/25 09:53:23;;;;;;;3.78;1.08;;;22.10;54.50;;;;;;5090837;28;20051;-73
2022/05/25 09:55:52;;;;;;;2.58;1.30;;;22.60;52.60;;;;;;5110381;28;20043;-73
2022/05/25 09:58:22;;;;;;;3.35;1.30;;;22.60;52.60;;;;;;5102562;28;20075;-72
2022/05/25 10:00:54;;;;;;;7.13;2.20;;;22.50;52.60;;;;;;5090774;28;20138;-71
2022/05/25 10:03:34;;;;;;;14.73;2.80;;;22.40;54.20;;;;;;5109007;28;20078;-71
2022/05/25 10:06:02;;;;;;;16.60;3.83;;;22.60;52.70;;;;;;5120664;27;20055;-71
2022/05/25 10:08:32;;;;;;;17.40;4.05;;;22.60;56.40;;;;;;5131667;27;20051;-73
2022/05/25 10:11:02;;;;;;;13.05;3.03;;;23.30;57.30;;;;;;5131839;27;20051;-73
2022/05/25 10:13:29;;;;;;;13.35;2.85;;;21.90;53.90;;;;;;5131410;27;20058;-74
2022/05/25 10:15:56;;;;;;;9.98;2.72;;;22.50;56.00;;;;;;5128903;27;20047;-74
2022/05/25 10:18:35;;;;;;;12.32;2.65;;;23.10;56.80;;;;;;5124483;27;20510;-73
2022/05/25 10:21:03;;;;;;;8.13;2.47;;;22.40;52.80;;;;;;5110837;28;20048;-74
2022/05/25 10:23:29;;;;;;;13.75;2.50;;;23.20;55.20;;;;;;5110671;28;20060;-73
2022/05/25 10:25:57;;;;;;;10.60;2.45;;;22.40;53.00;;;;;;5110797;28;20105;-74
2022/05/25 10:28:25;;;;;;;4.93;1.73;;;22.40;53.00;;;;;;5110827;28;20048;-74
2022/05/25 10:36:49;;;;;;;6.53;2.05;;;22.40;53.00;;;;;;5090314;28;20216;-73
2022/05/25 10:39:25;;;;;;;8.20;2.30;;;22.40;53.10;;;;;;5090458;28;20490;-73
2022/05/25 10:42:07;;;;;;;7.10;1.73;;;22.40;53.10;;;;;;5089585;28;20131;-73
2022/05/25 10:44:42;;;;;;;7.65;2.08;;;23.20;57.80;;;;;;5089853;28;20056;-73
2022/05/25 10:47:15;;;;;;;4.35;1.77;;;22.30;53.00;;;;;;5090088;28;20052;-73
2022/05/25 10:49:42;;;;;;;5.63;1.83;;;22.60;57.00;;;;;;5091504;28;20055;-72
2022/05/25 10:52:13;;;;;;;4.18;1.63;;;22.30;53.10;;;;;;5108162;28;20052;-73
2022/05/25 10:54:47;;;;;;;3.67;1.60;;;22.30;56.30;;;;;;5109572;28;20052;-73
2022/05/25 10:57:51;;;;;;;3.22;1.63;;;22.40;57.10;;;;;;5111839;28;20457;-73
2022/05/25 11:00:20;;;;;;;4.22;1.52;;;22.30;56.60;;;;;;5089083;28;20106;-73
2022/05/25 11:03:23;;;;;;;2.17;1.33;;;22.20;56.90;;;;;;5103178;28;20135;-71
2022/05/25 11:05:53;;;;;;;4.63;1.60;;;21.10;56.30;;;;;;5110293;28;20058;-72
2022/05/25 11:08:27;;;;;;;2.78;1.40;;;22.20;53.20;;;;;;5109514;28;20104;-72
2022/05/25 11:10:56;;;;;;;4.68;1.30;;;22.20;53.20;;;;;;5108119;28;20052;-74
2022/05/25 11:13:47;;;;;;;3.53;1.40;;;21.50;54.50;;;;;;5102090;28;20534;-72
2022/05/25 11:16:23;;;;;;;4.82;1.38;;;22.20;53.30;;;;;;5113504;27;20062;-74
2022/05/25 11:18:57;;;;;;;2.65;1.20;;;22.20;53.40;;;;;;5100295;28;20062;-73
2022/05/25 11:21:29;;;;;;;2.45;1.30;;;22.30;58.30;;;;;;5097598;28;20048;-73
2022/05/25 11:24:08;;;;;;;1.98;1.17;;;22.20;53.50;;;;;;5100313;27;20052;-73
2022/05/25 11:27:09;;;;;;;2.47;1.40;;;22.20;53.40;;;;;;5098643;28;20050;-73
2022/05/25 11:29:48;;;;;;;2.10;1.10;;;22.20;54.00;;;;;;5081469;28;20040;-73
2022/05/25 11:32:18;;;;;;;2.85;1.65;;;22.10;57.10;;;;;;5106425;28;20052;-74
2022/05/25 11:34:54;;;;;;;2.13;1.33;;;22.00;56.80;;;;;;5109685;28;20073;-74
2022/05/25 11:37:28;;;;;;;2.55;1.20;;;22.00;58.00;;;;;;5109320;28;20052;-74
2022/05/25 11:39:59;;;;;;;3.07;1.40;;;22.20;53.60;;;;;;5109640;28;20059;-74
2022/05/25 11:42:50;;;;;;;3.83;1.70;;;22.10;57.90;;;;;;5109611;28;20047;-73
2022/05/25 11:45:27;;;;;;;2.42;1.33;;;22.00;56.80;;;;;;5109703;28;20058;-74
2022/05/25 11:48:04;;;;;;;2.30;1.27;;;22.20;53.70;;;;;;5109299;28;20054;-73
2022/05/25 11:50:38;;;;;;;2.10;1.08;;;22.10;53.60;;;;;;5109497;28;20053;-72
2022/05/25 11:53:18;;;;;;;2.85;1.30;;;22.20;53.70;;;;;;5109023;28;20063;-72
2022/05/25 11:55:50;;;;;;;2.10;1.48;;;22.10;53.70;;;;;;5109300;28;20047;-73
2022/05/25 11:58:24;;;;;;;2.45;1.13;;;22.10;53.70;;;;;;5109332;28;20052;-72
2022/05/25 12:00:57;;;;;;;2.67;1.20;;;22.20;57.60;;;;;;5109271;28;20134;-72
2022/05/25 12:03:42;;;;;;;2.25;1.10;;;22.90;55.90;;;;;;5107943;28;20305;-74
2022/05/25 12:06:18;;;;;;;2.00;1.20;;;23.20;55.90;;;;;;5108690;28;20432;-72
2022/05/25 12:08:55;;;;;;;2.92;0.95;;;21.20;56.10;;;;;;5108746;28;20047;-74
2022/05/25 12:11:27;;;;;;;1.63;1.20;;;22.20;53.70;;;;;;5107985;28;20482;-71
2022/05/25 12:13:56;;;;;;;2.17;1.10;;;22.20;53.70;;;;;;5108876;28;20477;-73
2022/05/25 12:16:23;;;;;;;1.90;1.45;;;22.00;56.80;;;;;;5108822;28;20055;-72
2022/05/25 12:18:54;;;;;;;2.33;1.10;;;22.10;53.80;;;;;;5108288;28;20152;-74
2022/05/25 12:21:23;;;;;;;1.40;1.00;;;22.00;57.40;;;;;;5109091;28;20059;-74
2022/05/25 12:23:52;;;;;;;2.25;1.00;;;22.10;53.90;;;;;;5108367;28;20579;-75
2022/05/25 12:26:22;;;;;;;1.02;0.93;;;22.00;53.90;;;;;;5097622;28;20063;-74
2022/05/25 12:28:50;;;;;;;1.48;1.10;;;22.00;57.20;;;;;;5097325;28;20075;-74
2022/05/25 12:31:19;;;;;;;2.83;1.30;;;22.00;54.10;;;;;;5100151;27;20043;-74
2022/05/25 12:33:46;;;;;;;2.03;0.93;;;22.00;54.10;;;;;;5098416;28;20051;-75
2022/05/25 12:36:14;;;;;;;2.63;0.93;;;21.90;54.10;;;;;;5099364;28;20131;-74
2022/05/25 12:38:40;;;;;;;1.40;1.00;;;21.90;54.20;;;;;;5096744;28;20040;-75
2022/05/25 12:41:28;;;;;;;2.00;1.30;;;21.80;57.90;;;;;;5098395;28;20047;-74
2022/05/25 12:43:58;;;;;;;1.85;1.10;;;21.80;54.20;;;;;;5096842;28;20134;-75
2022/05/25 12:49:43;;;;;;;2.65;1.23;;;21.60;57.90;;;;;;5097378;27;20048;-75
2022/05/25 12:52:43;;;;;;;2.35;1.20;;;21.70;54.40;;;;;;5097551;28;20051;-75
2022/05/25 12:55:17;;;;;;;1.77;1.20;;;22.10;57.90;;;;;;5099934;27;20086;-75
2022/05/25 12:57:45;;;;;;;;;;;21.70;54.50;;;;;;5099381;28;20059;-74
2022/05/25 13:00:20;;;;;;;1.60;1.20;;;21.60;58.00;;;;;;5097607;28;19970;-75
2022/05/25 13:02:47;;;;;;;1.83;1.20;;;21.60;54.70;;;;;;5095962;28;20069;-75
2022/05/25 13:05:56;;;;;;;2.03;1.20;;;20.90;57.00;;;;;;5096644;28;20055;-74
2022/05/25 13:08:59;;;;;;;2.05;1.23;;;21.70;54.60;;;;;;5095985;28;20132;-75
2022/05/25 13:11:30;;;;;;;1.88;1.10;;;21.60;54.60;;;;;;5096001;28;20044;-74
2022/05/25 13:13:57;;;;;;;1.90;1.10;;;21.60;54.70;;;;;;5096375;28;20135;-74
2022/05/25 13:16:54;;;;;;;2.08;1.30;;;21.60;54.70;;;;;;5100378;28;20133;-75
2022/05/25 13:19:21;;;;;;;2.47;1.48;;;21.70;54.70;;;;;;5091622;28;20044;-75
2022/05/25 13:22:22;;;;;;;3.63;1.15;;;21.70;54.80;;;;;;5098432;28;20052;-75